sensor_id;sensor_type;location;lat;lon;timestamp;pressure;altitude;pressure_sealevel;temperature;humidity
10652;BME280;5374;42.742;23.266;2023-02-03T00:01:47;95690.28;;;3.89;84.68
10652;BME280;5374;42.742;23.266;2023-02-03T00:04:36;95657.97;;;3.69;86.27
10652;BME280;5374;42.742;23.266;2023-02-03T00:07:23;95703.81;;;3.86;87.27
10652;BME280;5374;42.742;23.266;2023-02-03T00:10:10;95694.13;;;3.80;87.60
10652;BME280;5374;42.742;23.266;2023-02-03T00:12:58;95710.09;;;3.78;89.84
10652;BME280;5374;42.742;23.266;2023-02-03T00:15:45;95691.66;;;3.52;90.73
10652;BME280;5374;42.742;23.266;2023-02-03T00:18:32;95626.41;;;3.29;89.83
10652;BME280;5374;42.742;23.266;2023-02-03T00:21:21;95692.50;;;3.66;89.31
10652;BME280;5374;42.742;23.266;2023-02-03T00:24:08;95708.03;;;3.67;89.60
10652;BME280;5374;42.742;23.266;2023-02-03T00:26:55;95718.13;;;3.64;90.02
10652;BME280;5374;42.742;23.266;2023-02-03T00:29:42;95726.22;;;3.69;90.79
10652;BME280;5374;42.742;23.266;2023-02-03T00:32:29;95717.97;;;3.72;91.07
10652;BME280;5374;42.742;23.266;2023-02-03T00:35:16;95672.66;;;3.30;91.67
10652;BME280;5374;42.742;23.266;2023-02-03T00:38:05;95714.66;;;3.43;93.04
10652;BME280;5374;42.742;23.266;2023-02-03T00:40:53;95726.03;;;3.57;94.42
10652;BME280;5374;42.742;23.266;2023-02-03T00:43:40;95730.06;;;3.60;94.36
10652;BME280;5374;42.742;23.266;2023-02-03T00:46:27;95667.75;;;3.07;95.67
10652;BME280;5374;42.742;23.266;2023-02-03T00:49:14;95702.94;;;3.33;97.14
10652;BME280;5374;42.742;23.266;2023-02-03T00:52:01;95650.31;;;2.87;98.92
10652;BME280;5374;42.742;23.266;2023-02-03T00:54:50;95676.63;;;3.06;100.00
10652;BME280;5374;42.742;23.266;2023-02-03T00:57:37;95675.31;;;2.83;100.00
10652;BME280;5374;42.742;23.266;2023-02-03T01:00:24;95740.91;;;3.37;100.00
10652;BME280;5374;42.742;23.266;2023-02-03T01:03:11;95725.94;;;3.31;100.00
10652;BME280;5374;42.742;23.266;2023-02-03T01:06:07;95764.53;;;3.37;100.00
10652;BME280;5374;42.742;23.266;2023-02-03T01:08:55;95762.28;;;3.40;100.00
10652;BME280;5374;42.742;23.266;2023-02-03T01:11:43;95750.59;;;3.36;100.00
10652;BME280;5374;42.742;23.266;2023-02-03T01:14:31;95736.84;;;3.28;100.00
10652;BME280;5374;42.742;23.266;2023-02-03T01:17:18;95757.47;;;3.37;100.00
10652;BME280;5374;42.742;23.266;2023-02-03T01:20:08;95756.47;;;3.38;100.00
10652;BME280;5374;42.742;23.266;2023-02-03T01:22:56;95750.19;;;3.33;100.00
10652;BME280;5374;42.742;23.266;2023-02-03T01:25:44;95756.25;;;3.40;100.00
10652;BME280;5374;42.742;23.266;2023-02-03T01:28:32;95743.72;;;3.35;99.51
10652;BME280;5374;42.742;23.266;2023-02-03T01:31:21;95727.31;;;3.20;99.40
10652;BME280;5374;42.742;23.266;2023-02-03T01:34:11;95751.59;;;3.35;98.44
10652;BME280;5374;42.742;23.266;2023-02-03T01:36:59;95750.38;;;3.31;98.36
10652;BME280;5374;42.742;23.266;2023-02-03T01:39:46;95753.78;;;3.25;98.34
10652;BME280;5374;42.742;23.266;2023-02-03T01:42:33;95765.72;;;3.34;97.51
10652;BME280;5374;42.742;23.266;2023-02-03T01:45:21;95754.59;;;3.26;97.22
10652;BME280;5374;42.742;23.266;2023-02-03T01:48:09;95770.16;;;3.34;96.79
10652;BME280;5374;42.742;23.266;2023-02-03T01:50:56;95730.13;;;3.12;96.11
10652;BME280;5374;42.742;23.266;2023-02-03T01:53:44;95758.63;;;3.28;96.45
10652;BME280;5374;42.742;23.266;2023-02-03T01:56:34;95758.59;;;3.22;96.59
10652;BME280;5374;42.742;23.266;2023-02-03T01:59:23;95759.88;;;3.32;96.38
10652;BME280;5374;42.742;23.266;2023-02-03T02:02:12;95703.16;;;2.84;95.72
10652;BME280;5374;42.742;23.266;2023-02-03T02:05:04;95768.91;;;3.23;95.30
10652;BME280;5374;42.742;23.266;2023-02-03T02:07:52;95766.28;;;3.23;95.62
10652;BME280;5374;42.742;23.266;2023-02-03T02:10:40;95768.09;;;3.23;95.13
10652;BME280;5374;42.742;23.266;2023-02-03T02:13:30;95762.66;;;3.24;94.73
10652;BME280;5374;42.742;23.266;2023-02-03T02:16:26;95756.56;;;3.11;93.91
10652;BME280;5374;42.742;23.266;2023-02-03T02:22:46;95747.28;;;3.15;93.40
10652;BME280;5374;42.742;23.266;2023-02-03T02:26:12;95763.06;;;3.28;91.52
10652;BME280;5374;42.742;23.266;2023-02-03T02:29:22;95777.38;;;3.25;91.85
10652;BME280;5374;42.742;23.266;2023-02-03T02:32:19;95748.97;;;2.94;92.25
10652;BME280;5374;42.742;23.266;2023-02-03T02:35:14;95777.09;;;3.07;92.38
10652;BME280;5374;42.742;23.266;2023-02-03T02:38:12;95756.94;;;3.07;92.69
10652;BME280;5374;42.742;23.266;2023-02-03T02:41:05;95771.19;;;2.98;93.94
10652;BME280;5374;42.742;23.266;2023-02-03T02:43:58;95776.25;;;2.93;95.08
10652;BME280;5374;42.742;23.266;2023-02-03T02:46:49;95756.75;;;2.74;95.70
10652;BME280;5374;42.742;23.266;2023-02-03T02:49:43;95800.41;;;2.89;97.57
10652;BME280;5374;42.742;23.266;2023-02-03T02:52:35;95778.34;;;2.77;97.38
10652;BME280;5374;42.742;23.266;2023-02-03T02:55:27;95796.41;;;2.93;97.26
10652;BME280;5374;42.742;23.266;2023-02-03T02:58:15;95781.53;;;2.72;97.47
10652;BME280;5374;42.742;23.266;2023-02-03T03:01:06;95798.00;;;2.87;96.09
10652;BME280;5374;42.742;23.266;2023-02-03T03:03:53;95804.03;;;2.88;93.66
10652;BME280;5374;42.742;23.266;2023-02-03T03:06:45;95778.09;;;2.65;92.25
10652;BME280;5374;42.742;23.266;2023-02-03T03:09:37;95806.84;;;2.86;92.18
10652;BME280;5374;42.742;23.266;2023-02-03T03:12:28;95816.53;;;2.86;92.54
10652;BME280;5374;42.742;23.266;2023-02-03T03:15:19;95824.03;;;2.89;90.29
10652;BME280;5374;42.742;23.266;2023-02-03T03:18:12;95829.22;;;2.82;90.97
10652;BME280;5374;42.742;23.266;2023-02-03T03:21:02;95827.78;;;2.80;90.37
10652;BME280;5374;42.742;23.266;2023-02-03T03:23:55;95829.41;;;2.81;90.03
10652;BME280;5374;42.742;23.266;2023-02-03T03:26:50;95837.03;;;2.75;89.07
10652;BME280;5374;42.742;23.266;2023-02-03T03:29:41;95838.28;;;2.80;87.68
10652;BME280;5374;42.742;23.266;2023-02-03T03:32:30;95767.06;;;2.20;87.31
10652;BME280;5374;42.742;23.266;2023-02-03T03:35:18;95827.72;;;2.73;87.36
10652;BME280;5374;42.742;23.266;2023-02-03T03:38:08;95828.97;;;2.77;86.48
10652;BME280;5374;42.742;23.266;2023-02-03T03:41:02;95837.66;;;2.78;85.97
10652;BME280;5374;42.742;23.266;2023-02-03T03:43:52;95826.59;;;2.82;85.21
10652;BME280;5374;42.742;23.266;2023-02-03T03:46:46;95812.81;;;2.73;84.79
10652;BME280;5374;42.742;23.266;2023-02-03T03:49:37;95802.88;;;2.62;83.84
10652;BME280;5374;42.742;23.266;2023-02-03T03:52:30;95826.59;;;2.82;83.89
10652;BME280;5374;42.742;23.266;2023-02-03T03:55:24;95807.47;;;2.60;83.96
10652;BME280;5374;42.742;23.266;2023-02-03T03:58:19;95806.09;;;2.64;84.32
10652;BME280;5374;42.742;23.266;2023-02-03T04:01:07;95828.94;;;2.70;85.02
10652;BME280;5374;42.742;23.266;2023-02-03T04:03:55;95806.06;;;2.58;85.38
10652;BME280;5374;42.742;23.266;2023-02-03T04:06:44;95832.97;;;2.73;86.01
10652;BME280;5374;42.742;23.266;2023-02-03T04:09:31;95834.56;;;2.67;86.97
10652;BME280;5374;42.742;23.266;2023-02-03T04:12:23;95841.03;;;2.71;86.53
10652;BME280;5374;42.742;23.266;2023-02-03T04:15:13;95852.06;;;2.60;86.53
10652;BME280;5374;42.742;23.266;2023-02-03T04:18:01;95842.69;;;2.51;87.48
10652;BME280;5374;42.742;23.266;2023-02-03T04:20:48;95846.13;;;2.52;87.63
10652;BME280;5374;42.742;23.266;2023-02-03T04:23:36;95838.44;;;2.50;86.51
10652;BME280;5374;42.742;23.266;2023-02-03T04:26:23;95822.69;;;2.44;85.79
10652;BME280;5374;42.742;23.266;2023-02-03T04:29:10;95853.22;;;2.58;85.09
10652;BME280;5374;42.742;23.266;2023-02-03T04:31:59;95871.66;;;2.64;85.25
10652;BME280;5374;42.742;23.266;2023-02-03T04:34:47;95876.13;;;2.70;84.31
10652;BME280;5374;42.742;23.266;2023-02-03T04:37:34;95872.91;;;2.68;84.59
10652;BME280;5374;42.742;23.266;2023-02-03T04:40:21;95877.69;;;2.65;84.97
10652;BME280;5374;42.742;23.266;2023-02-03T04:43:08;95879.13;;;2.67;84.41
10652;BME280;5374;42.742;23.266;2023-02-03T04:45:58;95877.50;;;2.66;84.87
10652;BME280;5374;42.742;23.266;2023-02-03T04:48:47;95883.38;;;2.68;84.10
10652;BME280;5374;42.742;23.266;2023-02-03T04:51:34;95881.97;;;2.72;84.05
10652;BME280;5374;42.742;23.266;2023-02-03T04:54:21;95876.31;;;2.69;83.40
10652;BME280;5374;42.742;23.266;2023-02-03T04:57:09;95900.94;;;2.74;83.28
10652;BME280;5374;42.742;23.266;2023-02-03T04:59:56;95847.91;;;2.45;82.86
10652;BME280;5374;42.742;23.266;2023-02-03T05:02:43;95896.91;;;2.72;82.82
10652;BME280;5374;42.742;23.266;2023-02-03T05:05:32;95895.09;;;2.72;82.57
10652;BME280;5374;42.742;23.266;2023-02-03T05:08:19;95897.94;;;2.71;85.15
10652;BME280;5374;42.742;23.266;2023-02-03T05:11:06;95922.13;;;2.73;84.19
10652;BME280;5374;42.742;23.266;2023-02-03T05:13:54;95903.56;;;2.74;84.33
10652;BME280;5374;42.742;23.266;2023-02-03T05:16:41;95888.19;;;2.65;84.45
10652;BME280;5374;42.742;23.266;2023-02-03T05:19:28;95915.50;;;2.77;83.65
10652;BME280;5374;42.742;23.266;2023-02-03T05:22:16;95906.34;;;2.66;83.89
10652;BME280;5374;42.742;23.266;2023-02-03T05:25:05;95931.22;;;2.77;83.40
10652;BME280;5374;42.742;23.266;2023-02-03T05:27:52;95914.59;;;2.63;83.29
10652;BME280;5374;42.742;23.266;2023-02-03T05:30:39;95910.41;;;2.69;83.13
10652;BME280;5374;42.742;23.266;2023-02-03T05:33:26;95941.53;;;2.79;83.36
10652;BME280;5374;42.742;23.266;2023-02-03T05:36:14;95924.69;;;2.66;83.06
10652;BME280;5374;42.742;23.266;2023-02-03T05:39:15;95942.72;;;2.76;83.03
10652;BME280;5374;42.742;23.266;2023-02-03T05:42:02;95946.72;;;2.72;82.97
10652;BME280;5374;42.742;23.266;2023-02-03T05:44:49;95926.69;;;2.64;82.78
10652;BME280;5374;42.742;23.266;2023-02-03T05:47:37;95947.53;;;2.72;82.54
10652;BME280;5374;42.742;23.266;2023-02-03T05:50:25;95909.09;;;2.37;83.07
10652;BME280;5374;42.742;23.266;2023-02-03T05:53:15;95960.59;;;2.66;83.16
10652;BME280;5374;42.742;23.266;2023-02-03T05:56:04;95954.91;;;2.62;83.65
10652;BME280;5374;42.742;23.266;2023-02-03T05:58:51;95963.84;;;2.68;83.64
10652;BME280;5374;42.742;23.266;2023-02-03T06:01:38;95923.53;;;2.48;83.18
10652;BME280;5374;42.742;23.266;2023-02-03T06:04:26;95970.75;;;2.75;82.57
10652;BME280;5374;42.742;23.266;2023-02-03T06:07:13;95962.31;;;2.80;82.07
10652;BME280;5374;42.742;23.266;2023-02-03T06:10:00;95962.84;;;2.90;81.55
10652;BME280;5374;42.742;23.266;2023-02-03T06:12:48;95962.66;;;2.92;80.60
10652;BME280;5374;42.742;23.266;2023-02-03T06:15:36;95947.91;;;2.91;80.17
10652;BME280;5374;42.742;23.266;2023-02-03T06:18:23;95937.06;;;3.00;79.83
10652;BME280;5374;42.742;23.266;2023-02-03T06:21:10;95938.25;;;2.98;79.16
10652;BME280;5374;42.742;23.266;2023-02-03T06:23:57;95929.81;;;3.02;78.46
10652;BME280;5374;42.742;23.266;2023-02-03T06:26:44;95958.38;;;3.12;78.54
10652;BME280;5374;42.742;23.266;2023-02-03T06:29:33;95962.81;;;3.12;78.78
10652;BME280;5374;42.742;23.266;2023-02-03T06:32:21;95960.75;;;3.07;78.92
10652;BME280;5374;42.742;23.266;2023-02-03T06:35:08;95952.16;;;2.92;79.23
10652;BME280;5374;42.742;23.266;2023-02-03T06:37:55;95933.16;;;2.90;79.65
10652;BME280;5374;42.742;23.266;2023-02-03T06:40:45;95956.56;;;3.13;79.38
10652;BME280;5374;42.742;23.266;2023-02-03T06:43:33;95942.94;;;3.02;78.32
10652;BME280;5374;42.742;23.266;2023-02-03T06:46:22;95889.78;;;2.87;78.29
10652;BME280;5374;42.742;23.266;2023-02-03T06:49:12;95935.31;;;3.70;74.20
10652;BME280;5374;42.742;23.266;2023-02-03T06:52:00;95924.50;;;3.52;74.58
10652;BME280;5374;42.742;23.266;2023-02-03T06:54:47;95981.09;;;3.95;73.13
10652;BME280;5374;42.742;23.266;2023-02-03T06:57:34;95974.44;;;3.99;73.30
10652;BME280;5374;42.742;23.266;2023-02-03T07:00:21;95957.72;;;4.13;72.06
10652;BME280;5374;42.742;23.266;2023-02-03T07:03:10;95948.34;;;3.91;72.19
10652;BME280;5374;42.742;23.266;2023-02-03T07:05:57;95975.84;;;5.88;67.52
10652;BME280;5374;42.742;23.266;2023-02-03T07:08:44;95963.63;;;6.58;62.83
10652;BME280;5374;42.742;23.266;2023-02-03T07:11:32;95987.47;;;7.39;59.77
10652;BME280;5374;42.742;23.266;2023-02-03T07:14:19;95981.97;;;8.02;56.92
10652;BME280;5374;42.742;23.266;2023-02-03T07:17:06;95997.09;;;7.52;57.89
10652;BME280;5374;42.742;23.266;2023-02-03T07:19:55;95985.22;;;7.11;58.38
10652;BME280;5374;42.742;23.266;2023-02-03T07:22:42;96004.72;;;7.10;59.02
10652;BME280;5374;42.742;23.266;2023-02-03T07:25:31;95985.72;;;6.64;59.09
10652;BME280;5374;42.742;23.266;2023-02-03T07:28:18;95992.69;;;6.00;59.93
10652;BME280;5374;42.742;23.266;2023-02-03T07:31:05;95967.22;;;5.28;61.78
10652;BME280;5374;42.742;23.266;2023-02-03T07:33:52;95996.19;;;5.35;62.50
10652;BME280;5374;42.742;23.266;2023-02-03T07:36:41;96021.53;;;5.62;62.36
10652;BME280;5374;42.742;23.266;2023-02-03T07:39:28;95986.47;;;5.48;62.56
10652;BME280;5374;42.742;23.266;2023-02-03T07:42:15;95951.44;;;5.35;62.45
10652;BME280;5374;42.742;23.266;2023-02-03T07:45:03;96034.66;;;5.82;62.19
10652;BME280;5374;42.742;23.266;2023-02-03T07:47:50;96029.78;;;6.05;61.72
10652;BME280;5374;42.742;23.266;2023-02-03T07:50:38;96015.75;;;6.18;60.93
10652;BME280;5374;42.742;23.266;2023-02-03T07:53:27;96012.56;;;6.03;61.18
10652;BME280;5374;42.742;23.266;2023-02-03T07:56:14;96009.22;;;6.27;60.92
10652;BME280;5374;42.742;23.266;2023-02-03T07:59:01;96027.50;;;6.29;60.64
10652;BME280;5374;42.742;23.266;2023-02-03T08:01:49;96026.69;;;6.28;60.06
10652;BME280;5374;42.742;23.266;2023-02-03T08:04:36;96000.31;;;6.22;60.05
10652;BME280;5374;42.742;23.266;2023-02-03T08:07:23;96025.41;;;6.44;58.69
10652;BME280;5374;42.742;23.266;2023-02-03T08:10:13;96064.69;;;6.59;58.68
10652;BME280;5374;42.742;23.266;2023-02-03T08:13:01;96003.84;;;6.02;58.60
10652;BME280;5374;42.742;23.266;2023-02-03T08:15:48;95995.94;;;6.02;60.08
10652;BME280;5374;42.742;23.266;2023-02-03T08:18:35;95990.38;;;6.30;59.30
10652;BME280;5374;42.742;23.266;2023-02-03T08:21:23;95978.81;;;6.25;58.33
10652;BME280;5374;42.742;23.266;2023-02-03T08:24:12;95999.41;;;6.54;57.73
10652;BME280;5374;42.742;23.266;2023-02-03T08:27:01;96041.53;;;7.05;57.46
10652;BME280;5374;42.742;23.266;2023-02-03T08:29:48;96038.94;;;6.99;58.03
10652;BME280;5374;42.742;23.266;2023-02-03T08:32:35;96023.84;;;7.06;55.66
10652;BME280;5374;42.742;23.266;2023-02-03T08:35:26;96031.34;;;7.09;55.20
10652;BME280;5374;42.742;23.266;2023-02-03T08:38:13;96043.19;;;7.31;55.69
10652;BME280;5374;42.742;23.266;2023-02-03T08:41:00;96044.25;;;7.24;56.13
10652;BME280;5374;42.742;23.266;2023-02-03T08:43:49;96023.09;;;6.99;55.27
10652;BME280;5374;42.742;23.266;2023-02-03T08:46:36;96040.47;;;7.13;54.94
10652;BME280;5374;42.742;23.266;2023-02-03T08:49:28;96061.94;;;7.23;55.38
10652;BME280;5374;42.742;23.266;2023-02-03T08:52:16;96046.06;;;7.23;57.23
10652;BME280;5374;42.742;23.266;2023-02-03T08:55:04;96065.63;;;7.47;57.93
10652;BME280;5374;42.742;23.266;2023-02-03T08:57:51;96047.03;;;7.60;56.51
10652;BME280;5374;42.742;23.266;2023-02-03T09:00:40;96021.38;;;7.67;56.60
10652;BME280;5374;42.742;23.266;2023-02-03T09:03:27;96073.91;;;8.07;56.25
10652;BME280;5374;42.742;23.266;2023-02-03T09:06:14;96072.06;;;8.26;55.96
10652;BME280;5374;42.742;23.266;2023-02-03T09:09:02;96074.38;;;7.97;54.60
10652;BME280;5374;42.742;23.266;2023-02-03T09:11:49;96078.16;;;7.83;55.46
10652;BME280;5374;42.742;23.266;2023-02-03T09:14:36;96063.06;;;7.90;55.07
10652;BME280;5374;42.742;23.266;2023-02-03T09:17:25;96067.31;;;7.91;54.27
10652;BME280;5374;42.742;23.266;2023-02-03T09:20:12;96051.31;;;7.86;54.46
10652;BME280;5374;42.742;23.266;2023-02-03T09:22:59;96020.00;;;7.83;55.08
10652;BME280;5374;42.742;23.266;2023-02-03T09:25:46;96057.47;;;7.98;53.35
10652;BME280;5374;42.742;23.266;2023-02-03T09:28:34;96052.63;;;7.95;54.68
10652;BME280;5374;42.742;23.266;2023-02-03T09:31:21;96053.38;;;8.02;55.27
10652;BME280;5374;42.742;23.266;2023-02-03T09:34:10;96047.06;;;8.21;55.27
10652;BME280;5374;42.742;23.266;2023-02-03T09:36:57;96054.25;;;8.14;54.70
10652;BME280;5374;42.742;23.266;2023-02-03T09:39:44;96057.66;;;8.21;55.31
10652;BME280;5374;42.742;23.266;2023-02-03T09:46:00;96027.69;;;7.66;54.17
10652;BME280;5374;42.742;23.266;2023-02-03T09:48:50;96059.53;;;7.96;53.09
10652;BME280;5374;42.742;23.266;2023-02-03T09:51:43;96059.44;;;8.09;53.29
10652;BME280;5374;42.742;23.266;2023-02-03T09:54:38;96063.97;;;8.02;52.54
10652;BME280;5374;42.742;23.266;2023-02-03T09:57:29;96067.03;;;7.99;53.07
10652;BME280;5374;42.742;23.266;2023-02-03T10:00:20;96069.31;;;7.71;52.15
10652;BME280;5374;42.742;23.266;2023-02-03T10:03:13;96066.31;;;7.36;52.66
10652;BME280;5374;42.742;23.266;2023-02-03T10:06:13;96058.97;;;7.44;53.87
10652;BME280;5374;42.742;23.266;2023-02-03T10:09:18;96062.69;;;7.62;52.84
10652;BME280;5374;42.742;23.266;2023-02-03T10:12:36;96071.44;;;7.87;51.42
10652;BME280;5374;42.742;23.266;2023-02-03T10:15:45;96064.34;;;7.81;51.62
10652;BME280;5374;42.742;23.266;2023-02-03T10:18:40;96048.63;;;8.11;51.93
10652;BME280;5374;42.742;23.266;2023-02-03T10:21:35;96073.38;;;8.16;49.75
10652;BME280;5374;42.742;23.266;2023-02-03T10:24:27;96033.13;;;7.71;50.16
10652;BME280;5374;42.742;23.266;2023-02-03T10:27:20;96062.56;;;7.75;50.69
10652;BME280;5374;42.742;23.266;2023-02-03T10:30:18;96062.69;;;7.86;50.55
10652;BME280;5374;42.742;23.266;2023-02-03T10:33:10;96060.84;;;8.12;51.50
10652;BME280;5374;42.742;23.266;2023-02-03T10:36:02;96054.84;;;7.98;50.82
10652;BME280;5374;42.742;23.266;2023-02-03T10:38:57;96052.44;;;7.72;50.05
10652;BME280;5374;42.742;23.266;2023-02-03T10:41:47;96057.50;;;7.73;50.41
10652;BME280;5374;42.742;23.266;2023-02-03T10:44:38;96044.34;;;7.42;50.78
10652;BME280;5374;42.742;23.266;2023-02-03T10:47:29;96038.69;;;7.38;50.12
10652;BME280;5374;42.742;23.266;2023-02-03T10:50:20;96060.44;;;7.34;48.64
10652;BME280;5374;42.742;23.266;2023-02-03T10:53:20;96054.91;;;7.42;50.20
10652;BME280;5374;42.742;23.266;2023-02-03T10:56:10;96050.78;;;7.46;49.63
10652;BME280;5374;42.742;23.266;2023-02-03T10:59:00;96042.88;;;7.21;48.23
10652;BME280;5374;42.742;23.266;2023-02-03T11:01:48;96047.44;;;7.01;48.11
10652;BME280;5374;42.742;23.266;2023-02-03T11:04:35;96035.88;;;6.64;48.19
10652;BME280;5374;42.742;23.266;2023-02-03T11:07:25;96036.56;;;6.39;49.01
10652;BME280;5374;42.742;23.266;2023-02-03T11:10:30;96047.53;;;6.43;49.27
10652;BME280;5374;42.742;23.266;2023-02-03T11:13:21;96039.22;;;6.33;49.62
10652;BME280;5374;42.742;23.266;2023-02-03T11:16:12;96039.50;;;6.69;48.94
10652;BME280;5374;42.742;23.266;2023-02-03T11:19:00;96022.19;;;7.11;48.85
10652;BME280;5374;42.742;23.266;2023-02-03T11:21:50;96024.53;;;7.26;49.01
10652;BME280;5374;42.742;23.266;2023-02-03T11:24:39;96017.44;;;7.51;48.54
10652;BME280;5374;42.742;23.266;2023-02-03T11:27:29;96004.63;;;7.48;49.29
10652;BME280;5374;42.742;23.266;2023-02-03T11:30:21;96012.41;;;7.18;49.23
10652;BME280;5374;42.742;23.266;2023-02-03T11:33:17;96007.78;;;7.07;49.25
10652;BME280;5374;42.742;23.266;2023-02-03T11:36:08;96020.47;;;7.24;47.12
10652;BME280;5374;42.742;23.266;2023-02-03T11:39:22;96012.78;;;7.47;47.03
10652;BME280;5374;42.742;23.266;2023-02-03T11:42:20;96009.34;;;7.46;46.14
10652;BME280;5374;42.742;23.266;2023-02-03T11:45:24;96003.00;;;7.72;46.70
10652;BME280;5374;42.742;23.266;2023-02-03T11:48:24;96009.72;;;7.93;45.51
10652;BME280;5374;42.742;23.266;2023-02-03T11:51:19;96003.13;;;8.02;45.15
10652;BME280;5374;42.742;23.266;2023-02-03T11:54:23;95969.63;;;7.96;44.48
10652;BME280;5374;42.742;23.266;2023-02-03T11:57:25;96020.91;;;8.13;43.62
10652;BME280;5374;42.742;23.266;2023-02-03T12:00:25;96016.88;;;8.11;42.84
10652;BME280;5374;42.742;23.266;2023-02-03T12:03:45;96008.38;;;8.09;43.91
10652;BME280;5374;42.742;23.266;2023-02-03T12:09:56;95991.97;;;8.00;43.88
10652;BME280;5374;42.742;23.266;2023-02-03T12:12:53;96009.44;;;8.01;41.48
10652;BME280;5374;42.742;23.266;2023-02-03T12:15:57;96000.34;;;7.97;41.79
10652;BME280;5374;42.742;23.266;2023-02-03T12:18:57;95995.91;;;7.91;41.65
10652;BME280;5374;42.742;23.266;2023-02-03T12:21:51;95989.75;;;7.79;42.79
10652;BME280;5374;42.742;23.266;2023-02-03T12:24:50;95997.63;;;7.61;41.73
10652;BME280;5374;42.742;23.266;2023-02-03T12:27:45;96006.69;;;7.71;42.64
10652;BME280;5374;42.742;23.266;2023-02-03T12:30:40;95998.34;;;7.49;42.21
10652;BME280;5374;42.742;23.266;2023-02-03T12:33:32;96001.09;;;7.36;43.02
10652;BME280;5374;42.742;23.266;2023-02-03T12:36:27;95999.59;;;7.22;43.10
10652;BME280;5374;42.742;23.266;2023-02-03T12:39:25;96001.53;;;7.33;44.54
10652;BME280;5374;42.742;23.266;2023-02-03T12:42:18;95995.13;;;7.23;43.27
10652;BME280;5374;42.742;23.266;2023-02-03T12:45:11;95993.13;;;7.18;43.66
10652;BME280;5374;42.742;23.266;2023-02-03T12:48:03;95982.97;;;6.83;45.13
10652;BME280;5374;42.742;23.266;2023-02-03T12:50:53;95987.03;;;6.86;45.82
10652;BME280;5374;42.742;23.266;2023-02-03T12:53:47;95980.63;;;6.69;46.27
10652;BME280;5374;42.742;23.266;2023-02-03T12:56:39;95987.31;;;6.71;47.17
10652;BME280;5374;42.742;23.266;2023-02-03T12:59:29;95977.38;;;6.67;44.39
10652;BME280;5374;42.742;23.266;2023-02-03T13:02:22;95971.72;;;6.63;44.21
10652;BME280;5374;42.742;23.266;2023-02-03T13:05:19;95962.50;;;6.41;44.61
10652;BME280;5374;42.742;23.266;2023-02-03T13:08:14;95958.53;;;6.18;45.88
10652;BME280;5374;42.742;23.266;2023-02-03T13:11:18;95954.09;;;6.19;46.56
10652;BME280;5374;42.742;23.266;2023-02-03T13:14:13;95936.63;;;6.25;47.39
10652;BME280;5374;42.742;23.266;2023-02-03T13:17:07;95953.00;;;6.33;47.62
10652;BME280;5374;42.742;23.266;2023-02-03T13:20:01;95952.44;;;6.25;47.80
10652;BME280;5374;42.742;23.266;2023-02-03T13:22:50;95957.69;;;6.31;47.95
10652;BME280;5374;42.742;23.266;2023-02-03T13:25:47;95952.19;;;6.33;46.71
10652;BME280;5374;42.742;23.266;2023-02-03T13:28:50;95955.63;;;6.33;46.44
10652;BME280;5374;42.742;23.266;2023-02-03T13:31:48;95962.59;;;6.21;46.69
10652;BME280;5374;42.742;23.266;2023-02-03T13:34:54;95962.22;;;6.11;47.98
10652;BME280;5374;42.742;23.266;2023-02-03T13:38:09;95958.84;;;5.84;48.50
10652;BME280;5374;42.742;23.266;2023-02-03T13:41:04;95962.31;;;5.78;50.04
10652;BME280;5374;42.742;23.266;2023-02-03T13:43:56;95940.06;;;5.61;50.73
10652;BME280;5374;42.742;23.266;2023-02-03T13:46:46;95963.34;;;5.57;51.14
10652;BME280;5374;42.742;23.266;2023-02-03T13:49:35;95960.31;;;5.54;51.81
10652;BME280;5374;42.742;23.266;2023-02-03T13:52:33;95972.06;;;5.51;52.05
10652;BME280;5374;42.742;23.266;2023-02-03T13:55:27;95961.56;;;5.31;52.72
10652;BME280;5374;42.742;23.266;2023-02-03T13:58:20;95956.72;;;5.41;52.82
10652;BME280;5374;42.742;23.266;2023-02-03T14:01:30;95955.84;;;5.61;52.85
10652;BME280;5374;42.742;23.266;2023-02-03T14:07:37;95953.03;;;5.62;51.96
10652;BME280;5374;42.742;23.266;2023-02-03T14:10:25;95961.91;;;5.68;52.05
10652;BME280;5374;42.742;23.266;2023-02-03T14:13:19;95948.13;;;5.66;52.17
10652;BME280;5374;42.742;23.266;2023-02-03T14:16:20;95955.41;;;5.77;52.54
10652;BME280;5374;42.742;23.266;2023-02-03T14:19:10;95944.88;;;5.83;52.46
10652;BME280;5374;42.742;23.266;2023-02-03T14:21:59;95941.56;;;5.88;51.86
10652;BME280;5374;42.742;23.266;2023-02-03T14:24:48;95947.69;;;5.82;52.39
10652;BME280;5374;42.742;23.266;2023-02-03T14:27:35;95931.09;;;5.75;52.60
10652;BME280;5374;42.742;23.266;2023-02-03T14:30:22;95952.56;;;5.85;51.97
10652;BME280;5374;42.742;23.266;2023-02-03T14:33:10;95955.41;;;5.83;51.88
10652;BME280;5374;42.742;23.266;2023-02-03T14:35:58;95939.66;;;5.64;51.69
10652;BME280;5374;42.742;23.266;2023-02-03T14:38:46;95938.84;;;5.57;51.52
10652;BME280;5374;42.742;23.266;2023-02-03T14:41:44;95936.22;;;5.43;52.32
10652;BME280;5374;42.742;23.266;2023-02-03T14:44:41;95959.13;;;5.36;52.13
10652;BME280;5374;42.742;23.266;2023-02-03T14:47:47;95953.03;;;5.23;52.00
10652;BME280;5374;42.742;23.266;2023-02-03T14:50:46;95961.16;;;5.21;52.49
10652;BME280;5374;42.742;23.266;2023-02-03T14:53:52;95952.66;;;5.19;52.60
10652;BME280;5374;42.742;23.266;2023-02-03T14:56:46;95958.34;;;5.16;52.91
10652;BME280;5374;42.742;23.266;2023-02-03T14:59:58;95941.09;;;5.20;53.43
10652;BME280;5374;42.742;23.266;2023-02-03T15:03:19;95927.53;;;5.23;53.65
10652;BME280;5374;42.742;23.266;2023-02-03T15:06:36;95921.28;;;5.18;53.83
10652;BME280;5374;42.742;23.266;2023-02-03T15:09:28;95923.91;;;5.11;53.83
10652;BME280;5374;42.742;23.266;2023-02-03T15:12:18;95906.50;;;5.10;53.88
10652;BME280;5374;42.742;23.266;2023-02-03T15:15:22;95891.09;;;5.00;54.14
10652;BME280;5374;42.742;23.266;2023-02-03T15:18:20;95890.13;;;4.95;53.98
10652;BME280;5374;42.742;23.266;2023-02-03T15:21:13;95890.72;;;4.97;53.77
10652;BME280;5374;42.742;23.266;2023-02-03T15:24:13;95896.16;;;5.02;53.78
10652;BME280;5374;42.742;23.266;2023-02-03T15:27:02;95891.31;;;4.86;54.00
10652;BME280;5374;42.742;23.266;2023-02-03T15:29:50;95882.81;;;4.77;54.19
10652;BME280;5374;42.742;23.266;2023-02-03T15:32:40;95887.28;;;4.70;54.45